Terminal Aerodrome Forecast
Issued by NWS

Current Version | Previous Version | Text Only | Print | Product List | Glossary Off
Versions: 1 2 3 4 5 6 7 8 9 10 11 12 13 14 15 16 17 18 19 20 21

000
FTUS41 KILN 240300 AAA
TAFLUK
TAF AMD
KLUK 240329Z 2403/2424 02009KT P6SM SCT012 OVC028
      TEMPO 2403/2405 5SM -SHRA BR OVC018
     FM240500 02007KT P6SM OVC016
      TEMPO 2411/2414 BKN035
     FM241400 02010KT P6SM SCT040
      TEMPO 2418/2422 BKN040
     FM242300 04002KT P6SM SCT040=

USA.gov is the U.S. government's official web portal to all federal, state and local government web resources and services.